sensor_id;sensor_type;location;lat;lon;timestamp;pressure;altitude;pressure_sealevel;temperature;humidity
55301;BME280;58302;51.446;-2.000;2024-02-21T00:01:47;101186.03;;;8.80;100.00
55301;BME280;58302;51.446;-2.000;2024-02-21T00:04:13;101191.56;;;8.85;100.00
55301;BME280;58302;51.446;-2.000;2024-02-21T00:06:39;101176.59;;;8.83;100.00
55301;BME280;58302;51.446;-2.000;2024-02-21T00:09:05;101169.28;;;8.83;100.00
55301;BME280;58302;51.446;-2.000;2024-02-21T00:11:31;101160.09;;;8.84;100.00
55301;BME280;58302;51.446;-2.000;2024-02-21T00:13:57;101156.56;;;8.84;100.00
55301;BME280;58302;51.446;-2.000;2024-02-21T00:16:24;101147.38;;;8.85;100.00
55301;BME280;58302;51.446;-2.000;2024-02-21T00:18:50;101135.47;;;8.86;100.00
55301;BME280;58302;51.446;-2.000;2024-02-21T00:21:15;101125.78;;;8.90;100.00
55301;BME280;58302;51.446;-2.000;2024-02-21T00:23:44;101120.84;;;8.87;100.00
55301;BME280;58302;51.446;-2.000;2024-02-21T00:26:15;101105.16;;;8.89;100.00
55301;BME280;58302;51.446;-2.000;2024-02-21T00:28:41;101102.47;;;8.89;100.00
55301;BME280;58302;51.446;-2.000;2024-02-21T00:31:07;101091.41;;;8.90;100.00
55301;BME280;58302;51.446;-2.000;2024-02-21T00:33:33;101084.09;;;8.91;100.00
55301;BME280;58302;51.446;-2.000;2024-02-21T00:35:59;101079.25;;;8.93;100.00
55301;BME280;58302;51.446;-2.000;2024-02-21T00:38:24;101077.09;;;8.95;100.00
55301;BME280;58302;51.446;-2.000;2024-02-21T00:40:50;101069.22;;;8.93;100.00
55301;BME280;58302;51.446;-2.000;2024-02-21T00:43:16;101064.16;;;8.97;100.00
55301;BME280;58302;51.446;-2.000;2024-02-21T00:45:42;101064.72;;;8.99;100.00
55301;BME280;58302;51.446;-2.000;2024-02-21T00:48:08;101060.94;;;9.00;100.00
55301;BME280;58302;51.446;-2.000;2024-02-21T00:50:35;101048.47;;;8.99;100.00
55301;BME280;58302;51.446;-2.000;2024-02-21T00:53:15;101047.06;;;8.96;100.00
55301;BME280;58302;51.446;-2.000;2024-02-21T00:55:41;101034.59;;;8.95;100.00
55301;BME280;58302;51.446;-2.000;2024-02-21T00:58:09;101031.78;;;8.90;100.00
55301;BME280;58302;51.446;-2.000;2024-02-21T01:00:35;101016.78;;;8.88;100.00
55301;BME280;58302;51.446;-2.000;2024-02-21T01:03:01;101013.00;;;8.89;100.00
55301;BME280;58302;51.446;-2.000;2024-02-21T01:05:28;101011.47;;;8.93;100.00
55301;BME280;58302;51.446;-2.000;2024-02-21T01:07:56;101004.41;;;8.92;100.00
55301;BME280;58302;51.446;-2.000;2024-02-21T01:10:22;101005.69;;;8.89;100.00
55301;BME280;58302;51.446;-2.000;2024-02-21T01:12:48;100999.47;;;8.89;100.00
55301;BME280;58302;51.446;-2.000;2024-02-21T01:15:14;100985.34;;;8.87;100.00
55301;BME280;58302;51.446;-2.000;2024-02-21T01:17:40;100984.00;;;8.89;100.00
55301;BME280;58302;51.446;-2.000;2024-02-21T01:20:07;100969.91;;;8.87;100.00
55301;BME280;58302;51.446;-2.000;2024-02-21T01:22:33;100959.88;;;8.88;100.00
55301;BME280;58302;51.446;-2.000;2024-02-21T01:24:59;100959.53;;;8.84;100.00
55301;BME280;58302;51.446;-2.000;2024-02-21T01:27:29;100945.16;;;8.84;100.00
55301;BME280;58302;51.446;-2.000;2024-02-21T01:29:55;100951.16;;;8.86;100.00
55301;BME280;58302;51.446;-2.000;2024-02-21T01:32:22;100947.88;;;8.84;100.00
55301;BME280;58302;51.446;-2.000;2024-02-21T01:34:50;100938.91;;;8.83;100.00
55301;BME280;58302;51.446;-2.000;2024-02-21T01:37:16;100939.97;;;8.82;100.00
55301;BME280;58302;51.446;-2.000;2024-02-21T01:39:43;100929.28;;;8.76;100.00
55301;BME280;58302;51.446;-2.000;2024-02-21T01:42:09;100907.25;;;8.72;100.00
55301;BME280;58302;51.446;-2.000;2024-02-21T01:44:36;100901.16;;;8.65;100.00
55301;BME280;58302;51.446;-2.000;2024-02-21T01:47:03;100893.41;;;8.57;100.00
55301;BME280;58302;51.446;-2.000;2024-02-21T01:49:29;100879.03;;;8.56;100.00
55301;BME280;58302;51.446;-2.000;2024-02-21T01:51:56;100863.53;;;8.52;100.00
55301;BME280;58302;51.446;-2.000;2024-02-21T01:54:22;100869.06;;;8.45;100.00
55301;BME280;58302;51.446;-2.000;2024-02-21T01:56:50;100858.75;;;8.42;100.00
55301;BME280;58302;51.446;-2.000;2024-02-21T01:59:18;100860.03;;;8.39;100.00
55301;BME280;58302;51.446;-2.000;2024-02-21T02:01:46;100846.72;;;8.38;100.00
55301;BME280;58302;51.446;-2.000;2024-02-21T02:04:12;100832.63;;;8.36;100.00
55301;BME280;58302;51.446;-2.000;2024-02-21T02:06:40;100826.97;;;8.37;100.00
55301;BME280;58302;51.446;-2.000;2024-02-21T02:09:06;100817.88;;;8.32;100.00
55301;BME280;58302;51.446;-2.000;2024-02-21T02:11:33;100805.28;;;8.37;100.00
55301;BME280;58302;51.446;-2.000;2024-02-21T02:13:59;100795.97;;;8.33;100.00
55301;BME280;58302;51.446;-2.000;2024-02-21T02:16:25;100800.13;;;8.36;100.00
55301;BME280;58302;51.446;-2.000;2024-02-21T02:18:51;100789.28;;;8.36;100.00
55301;BME280;58302;51.446;-2.000;2024-02-21T02:21:32;100783.03;;;8.35;100.00
55301;BME280;58302;51.446;-2.000;2024-02-21T02:24:00;100768.63;;;8.35;100.00
55301;BME280;58302;51.446;-2.000;2024-02-21T02:26:26;100765.09;;;8.34;100.00
55301;BME280;58302;51.446;-2.000;2024-02-21T02:28:54;100764.53;;;8.32;100.00
55301;BME280;58302;51.446;-2.000;2024-02-21T02:31:22;100768.06;;;8.33;100.00
55301;BME280;58302;51.446;-2.000;2024-02-21T02:33:48;100757.16;;;8.28;100.00
55301;BME280;58302;51.446;-2.000;2024-02-21T02:36:14;100739.97;;;8.22;100.00
55301;BME280;58302;51.446;-2.000;2024-02-21T02:38:40;100736.09;;;8.18;100.00
55301;BME280;58302;51.446;-2.000;2024-02-21T02:41:07;100731.75;;;8.17;100.00
55301;BME280;58302;51.446;-2.000;2024-02-21T02:43:33;100731.44;;;8.13;100.00
55301;BME280;58302;51.446;-2.000;2024-02-21T02:45:59;100723.22;;;8.08;100.00
55301;BME280;58302;51.446;-2.000;2024-02-21T02:48:25;100716.38;;;8.06;100.00
55301;BME280;58302;51.446;-2.000;2024-02-21T02:50:51;100711.47;;;8.03;100.00
55301;BME280;58302;51.446;-2.000;2024-02-21T02:53:18;100704.66;;;8.00;100.00
55301;BME280;58302;51.446;-2.000;2024-02-21T02:55:44;100698.66;;;7.98;100.00
55301;BME280;58302;51.446;-2.000;2024-02-21T02:58:10;100694.31;;;7.97;100.00
55301;BME280;58302;51.446;-2.000;2024-02-21T03:00:36;100689.94;;;7.96;100.00
55301;BME280;58302;51.446;-2.000;2024-02-21T03:03:02;100685.59;;;7.95;100.00
55301;BME280;58302;51.446;-2.000;2024-02-21T03:05:31;100666.09;;;7.93;100.00
55301;BME280;58302;51.446;-2.000;2024-02-21T03:07:58;100668.19;;;7.91;100.00
55301;BME280;58302;51.446;-2.000;2024-02-21T03:10:25;100670.69;;;7.92;100.00
55301;BME280;58302;51.446;-2.000;2024-02-21T03:12:52;100671.50;;;7.93;100.00
55301;BME280;58302;51.446;-2.000;2024-02-21T03:15:20;100664.69;;;7.90;100.00
55301;BME280;58302;51.446;-2.000;2024-02-21T03:17:49;100669.88;;;7.92;100.00
55301;BME280;58302;51.446;-2.000;2024-02-21T03:20:15;100655.75;;;7.90;100.00
55301;BME280;58302;51.446;-2.000;2024-02-21T03:22:41;100643.78;;;7.86;100.00
55301;BME280;58302;51.446;-2.000;2024-02-21T03:25:09;100650.22;;;7.85;100.00
55301;BME280;58302;51.446;-2.000;2024-02-21T03:27:37;100650.13;;;7.91;100.00
55301;BME280;58302;51.446;-2.000;2024-02-21T03:30:08;100628.03;;;7.83;100.00
55301;BME280;58302;51.446;-2.000;2024-02-21T03:32:35;100622.59;;;7.83;100.00
55301;BME280;58302;51.446;-2.000;2024-02-21T03:35:05;100636.13;;;7.83;100.00
55301;BME280;58302;51.446;-2.000;2024-02-21T03:37:36;100621.94;;;7.76;100.00
55301;BME280;58302;51.446;-2.000;2024-02-21T03:40:05;100631.28;;;7.85;100.00
55301;BME280;58302;51.446;-2.000;2024-02-21T03:42:44;100614.41;;;7.78;100.00
55301;BME280;58302;51.446;-2.000;2024-02-21T03:45:12;100603.31;;;7.79;100.00
55301;BME280;58302;51.446;-2.000;2024-02-21T03:47:39;100599.13;;;7.72;100.00
55301;BME280;58302;51.446;-2.000;2024-02-21T03:50:07;100601.44;;;7.80;100.00
55301;BME280;58302;51.446;-2.000;2024-02-21T03:52:34;100595.72;;;7.76;100.00
55301;BME280;58302;51.446;-2.000;2024-02-21T03:55:06;100596.28;;;7.78;100.00
55301;BME280;58302;51.446;-2.000;2024-02-21T03:57:33;100590.56;;;7.75;100.00
55301;BME280;58302;51.446;-2.000;2024-02-21T04:00:01;100589.22;;;7.77;100.00
55301;BME280;58302;51.446;-2.000;2024-02-21T04:02:29;100574.88;;;7.77;100.00
55301;BME280;58302;51.446;-2.000;2024-02-21T04:04:55;100567.84;;;7.76;100.00
55301;BME280;58302;51.446;-2.000;2024-02-21T04:07:23;100561.09;;;7.78;100.00
55301;BME280;58302;51.446;-2.000;2024-02-21T04:09:49;100569.13;;;7.73;100.00
55301;BME280;58302;51.446;-2.000;2024-02-21T04:12:16;100565.34;;;7.74;100.00
55301;BME280;58302;51.446;-2.000;2024-02-21T04:14:43;100563.00;;;7.78;100.00
55301;BME280;58302;51.446;-2.000;2024-02-21T04:17:09;100542.69;;;7.75;100.00
55301;BME280;58302;51.446;-2.000;2024-02-21T04:19:36;100546.19;;;7.76;100.00
55301;BME280;58302;51.446;-2.000;2024-02-21T04:22:02;100550.78;;;7.75;100.00
55301;BME280;58302;51.446;-2.000;2024-02-21T04:24:29;100545.69;;;7.79;100.00
55301;BME280;58302;51.446;-2.000;2024-02-21T04:26:55;100540.28;;;7.79;100.00
55301;BME280;58302;51.446;-2.000;2024-02-21T04:29:21;100532.69;;;7.76;100.00
55301;BME280;58302;51.446;-2.000;2024-02-21T04:31:47;100528.66;;;7.78;100.00
55301;BME280;58302;51.446;-2.000;2024-02-21T04:34:13;100519.16;;;7.76;100.00
55301;BME280;58302;51.446;-2.000;2024-02-21T04:36:39;100510.53;;;7.79;100.00
55301;BME280;58302;51.446;-2.000;2024-02-21T04:39:06;100502.75;;;7.82;100.00
55301;BME280;58302;51.446;-2.000;2024-02-21T04:41:32;100494.88;;;7.81;100.00
55301;BME280;58302;51.446;-2.000;2024-02-21T04:43:58;100498.97;;;7.83;100.00
55301;BME280;58302;51.446;-2.000;2024-02-21T04:46:24;100465.69;;;7.83;100.00
55301;BME280;58302;51.446;-2.000;2024-02-21T04:48:52;100461.91;;;7.84;100.00
55301;BME280;58302;51.446;-2.000;2024-02-21T04:51:18;100458.13;;;7.85;100.00
55301;BME280;58302;51.446;-2.000;2024-02-21T04:53:45;100453.22;;;7.82;100.00
55301;BME280;58302;51.446;-2.000;2024-02-21T04:56:11;100444.03;;;7.83;100.00
55301;BME280;58302;51.446;-2.000;2024-02-21T04:58:38;100435.38;;;7.81;100.00
55301;BME280;58302;51.446;-2.000;2024-02-21T05:01:05;100431.59;;;7.82;100.00
55301;BME280;58302;51.446;-2.000;2024-02-21T05:03:35;100440.25;;;7.84;100.00
55301;BME280;58302;51.446;-2.000;2024-02-21T05:06:02;100419.13;;;7.81;100.00
55301;BME280;58302;51.446;-2.000;2024-02-21T05:08:34;100421.06;;;7.85;100.00
55301;BME280;58302;51.446;-2.000;2024-02-21T05:11:02;100416.50;;;7.86;100.00
55301;BME280;58302;51.446;-2.000;2024-02-21T05:13:28;100396.50;;;7.87;100.00
55301;BME280;58302;51.446;-2.000;2024-02-21T05:15:54;100395.69;;;7.86;100.00
55301;BME280;58302;51.446;-2.000;2024-02-21T05:18:20;100390.81;;;7.88;100.00
55301;BME280;58302;51.446;-2.000;2024-02-21T05:20:48;100381.38;;;7.91;100.00
55301;BME280;58302;51.446;-2.000;2024-02-21T05:23:14;100375.66;;;7.87;100.00
55301;BME280;58302;51.446;-2.000;2024-02-21T05:25:40;100361.53;;;7.85;100.00
55301;BME280;58302;51.446;-2.000;2024-02-21T05:28:06;100357.53;;;7.88;100.00
55301;BME280;58302;51.446;-2.000;2024-02-21T05:30:34;100350.25;;;7.88;100.00
55301;BME280;58302;51.446;-2.000;2024-02-21T05:33:04;100344.00;;;7.88;100.00
55301;BME280;58302;51.446;-2.000;2024-02-21T05:35:38;100350.56;;;7.92;100.00
55301;BME280;58302;51.446;-2.000;2024-02-21T05:38:21;100348.91;;;7.91;100.00
55301;BME280;58302;51.446;-2.000;2024-02-21T05:44:10;100347.28;;;7.90;100.00
55301;BME280;58302;51.446;-2.000;2024-02-21T05:46:44;100318.50;;;7.84;100.00
55301;BME280;58302;51.446;-2.000;2024-02-21T05:49:16;100318.09;;;7.92;100.00
55301;BME280;58302;51.446;-2.000;2024-02-21T05:51:43;100316.22;;;7.92;100.00
55301;BME280;58302;51.446;-2.000;2024-02-21T05:54:10;100315.38;;;7.92;100.00
55301;BME280;58302;51.446;-2.000;2024-02-21T05:56:50;100303.22;;;7.95;100.00
55301;BME280;58302;51.446;-2.000;2024-02-21T05:59:16;100294.78;;;7.91;100.00
55301;BME280;58302;51.446;-2.000;2024-02-21T06:01:42;100278.56;;;7.91;100.00
55301;BME280;58302;51.446;-2.000;2024-02-21T06:04:08;100274.47;;;7.88;100.00
55301;BME280;58302;51.446;-2.000;2024-02-21T06:06:36;100279.69;;;7.95;100.00
55301;BME280;58302;51.446;-2.000;2024-02-21T06:09:07;100274.28;;;7.95;100.00
55301;BME280;58302;51.446;-2.000;2024-02-21T06:11:39;100267.72;;;7.91;100.00
55301;BME280;58302;51.446;-2.000;2024-02-21T06:14:05;100261.81;;;7.94;100.00
55301;BME280;58302;51.446;-2.000;2024-02-21T06:16:32;102571.19;;;7.89;100.00
55301;BME280;58302;51.446;-2.000;2024-02-21T06:18:58;101473.91;;;7.84;100.00
55301;BME280;58302;51.446;-2.000;2024-02-21T06:21:46;100925.78;;;7.88;100.00
55301;BME280;58302;51.446;-2.000;2024-02-21T06:24:16;100707.19;;;7.78;100.00
55301;BME280;58302;51.446;-2.000;2024-02-21T06:26:47;100612.13;;;7.86;100.00
55301;BME280;58302;51.446;-2.000;2024-02-21T06:29:15;100534.88;;;7.79;100.00
55301;BME280;58302;51.446;-2.000;2024-02-21T06:31:42;100524.47;;;7.87;100.00
55301;BME280;58302;51.446;-2.000;2024-02-21T06:34:09;100493.91;;;7.87;100.00
55301;BME280;58302;51.446;-2.000;2024-02-21T06:36:37;100475.53;;;7.89;100.00
55301;BME280;58302;51.446;-2.000;2024-02-21T06:39:04;100455.75;;;7.88;100.00
55301;BME280;58302;51.446;-2.000;2024-02-21T06:41:33;100435.50;;;7.91;100.00
55301;BME280;58302;51.446;-2.000;2024-02-21T06:44:00;100414.69;;;7.91;100.00
55301;BME280;58302;51.446;-2.000;2024-02-21T06:46:26;100397.59;;;7.91;100.00
55301;BME280;58302;51.446;-2.000;2024-02-21T06:48:56;100389.56;;;7.96;100.00
55301;BME280;58302;51.446;-2.000;2024-02-21T06:51:22;100373.59;;;7.95;100.00
55301;BME280;58302;51.446;-2.000;2024-02-21T06:53:49;100358.25;;;8.00;100.00
55301;BME280;58302;51.446;-2.000;2024-02-21T06:56:16;100349.38;;;8.05;100.00
55301;BME280;58302;51.446;-2.000;2024-02-21T06:58:43;100332.31;;;8.04;100.00
55301;BME280;58302;51.446;-2.000;2024-02-21T07:01:10;100318.03;;;8.09;100.00
55301;BME280;58302;51.446;-2.000;2024-02-21T07:03:36;100289.56;;;8.06;100.00
55301;BME280;58302;51.446;-2.000;2024-02-21T07:06:03;100283.41;;;8.11;100.00
55301;BME280;58302;51.446;-2.000;2024-02-21T07:08:29;100263.09;;;8.08;100.00
55301;BME280;58302;51.446;-2.000;2024-02-21T07:10:55;100250.94;;;8.11;100.00
55301;BME280;58302;51.446;-2.000;2024-02-21T07:13:21;100249.78;;;8.07;100.00
55301;BME280;58302;51.446;-2.000;2024-02-21T07:15:48;100232.25;;;8.09;100.00
55301;BME280;58302;51.446;-2.000;2024-02-21T07:18:14;100216.28;;;8.13;100.00
55301;BME280;58302;51.446;-2.000;2024-02-21T07:20:40;100226.06;;;8.14;100.00
55301;BME280;58302;51.446;-2.000;2024-02-21T07:23:08;100195.47;;;8.13;100.00
55301;BME280;58302;51.446;-2.000;2024-02-21T07:25:34;100182.75;;;8.14;100.00
55301;BME280;58302;51.446;-2.000;2024-02-21T07:28:01;100191.69;;;8.14;100.00
55301;BME280;58302;51.446;-2.000;2024-02-21T07:30:27;100157.81;;;8.12;100.00
55301;BME280;58302;51.446;-2.000;2024-02-21T07:32:53;100140.00;;;8.16;100.00
55301;BME280;58302;51.446;-2.000;2024-02-21T07:35:19;100148.13;;;8.16;100.00
55301;BME280;58302;51.446;-2.000;2024-02-21T07:37:46;100154.91;;;8.18;100.00
55301;BME280;58302;51.446;-2.000;2024-02-21T07:40:13;100127.84;;;8.18;100.00
55301;BME280;58302;51.446;-2.000;2024-02-21T07:42:40;100110.22;;;8.16;100.00
55301;BME280;58302;51.446;-2.000;2024-02-21T07:45:10;100113.47;;;8.18;100.00
55301;BME280;58302;51.446;-2.000;2024-02-21T07:47:38;100102.09;;;8.16;100.00
55301;BME280;58302;51.446;-2.000;2024-02-21T07:50:04;100096.75;;;8.21;100.00
55301;BME280;58302;51.446;-2.000;2024-02-21T07:52:31;100083.44;;;8.14;100.00
55301;BME280;58302;51.446;-2.000;2024-02-21T07:54:57;100083.47;;;8.19;100.00
55301;BME280;58302;51.446;-2.000;2024-02-21T07:57:26;100061.25;;;8.17;100.00
55301;BME280;58302;51.446;-2.000;2024-02-21T07:59:53;100057.75;;;8.22;100.00
55301;BME280;58302;51.446;-2.000;2024-02-21T08:02:19;100051.53;;;8.22;100.00
55301;BME280;58302;51.446;-2.000;2024-02-21T08:04:46;100049.13;;;8.25;100.00
55301;BME280;58302;51.446;-2.000;2024-02-21T08:07:12;100024.16;;;8.18;100.00
55301;BME280;58302;51.446;-2.000;2024-02-21T08:09:39;100038.53;;;8.24;100.00
55301;BME280;58302;51.446;-2.000;2024-02-21T08:12:06;100032.84;;;8.20;100.00
55301;BME280;58302;51.446;-2.000;2024-02-21T08:14:32;100036.91;;;8.23;100.00
55301;BME280;58302;51.446;-2.000;2024-02-21T08:17:01;100010.63;;;8.18;100.00
55301;BME280;58302;51.446;-2.000;2024-02-21T08:19:27;100005.22;;;8.18;100.00
55301;BME280;58302;51.446;-2.000;2024-02-21T08:21:53;100002.78;;;8.16;100.00
55301;BME280;58302;51.446;-2.000;2024-02-21T08:24:20;99997.38;;;8.16;100.00
55301;BME280;58302;51.446;-2.000;2024-02-21T08:26:48;99982.72;;;8.12;100.00
55301;BME280;58302;51.446;-2.000;2024-02-21T08:29:14;99972.19;;;8.16;100.00
55301;BME280;58302;51.446;-2.000;2024-02-21T08:31:41;99960.00;;;8.13;100.00
55301;BME280;58302;51.446;-2.000;2024-02-21T08:34:08;99952.13;;;8.12;100.00
55301;BME280;58302;51.446;-2.000;2024-02-21T08:36:34;99936.44;;;8.09;100.00
55301;BME280;58302;51.446;-2.000;2024-02-21T08:39:02;99933.19;;;8.12;100.00
55301;BME280;58302;51.446;-2.000;2024-02-21T08:41:32;99931.25;;;8.07;100.00
55301;BME280;58302;51.446;-2.000;2024-02-21T08:44:06;99931.28;;;8.12;100.00
55301;BME280;58302;51.446;-2.000;2024-02-21T08:46:34;99905.31;;;8.11;100.00
55301;BME280;58302;51.446;-2.000;2024-02-21T08:49:00;99914.00;;;8.13;100.00
55301;BME280;58302;51.446;-2.000;2024-02-21T08:51:26;99902.31;;;8.13;100.00
55301;BME280;58302;51.446;-2.000;2024-02-21T08:53:52;99887.16;;;8.12;100.00
55301;BME280;58302;51.446;-2.000;2024-02-21T08:56:22;99890.44;;;8.14;100.00
55301;BME280;58302;51.446;-2.000;2024-02-21T08:58:48;99888.81;;;8.18;100.00
55301;BME280;58302;51.446;-2.000;2024-02-21T09:01:14;99877.47;;;8.21;100.00
55301;BME280;58302;51.446;-2.000;2024-02-21T09:03:41;99864.75;;;8.22;100.00
55301;BME280;58302;51.446;-2.000;2024-02-21T09:06:10;99854.47;;;8.24;100.00
55301;BME280;58302;51.446;-2.000;2024-02-21T09:08:37;99853.66;;;8.23;100.00
55301;BME280;58302;51.446;-2.000;2024-02-21T09:11:05;99831.75;;;8.25;100.00
55301;BME280;58302;51.446;-2.000;2024-02-21T09:13:32;99837.19;;;8.25;100.00
55301;BME280;58302;51.446;-2.000;2024-02-21T09:15:57;99829.06;;;8.25;100.00
55301;BME280;58302;51.446;-2.000;2024-02-21T09:18:23;99833.91;;;8.28;100.00
55301;BME280;58302;51.446;-2.000;2024-02-21T09:20:50;99806.34;;;8.31;100.00
55301;BME280;58302;51.446;-2.000;2024-02-21T09:23:17;99800.91;;;8.31;100.00
55301;BME280;58302;51.446;-2.000;2024-02-21T09:25:45;99791.72;;;8.32;100.00
55301;BME280;58302;51.446;-2.000;2024-02-21T09:28:12;99793.06;;;8.34;100.00
55301;BME280;58302;51.446;-2.000;2024-02-21T09:30:39;99787.38;;;8.31;100.00
55301;BME280;58302;51.446;-2.000;2024-02-21T09:33:04;99768.69;;;8.34;100.00
55301;BME280;58302;51.446;-2.000;2024-02-21T09:35:32;99768.69;;;8.34;100.00
55301;BME280;58302;51.446;-2.000;2024-02-21T09:37:59;99760.34;;;8.36;100.00
55301;BME280;58302;51.446;-2.000;2024-02-21T09:40:26;99744.91;;;8.36;100.00
55301;BME280;58302;51.446;-2.000;2024-02-21T09:43:04;99736.00;;;8.41;100.00
55301;BME280;58302;51.446;-2.000;2024-02-21T09:45:35;99734.63;;;8.43;100.00
55301;BME280;58302;51.446;-2.000;2024-02-21T09:50:38;99717.88;;;8.47;100.00
55301;BME280;58302;51.446;-2.000;2024-02-21T09:53:06;99710.28;;;8.49;100.00
55301;BME280;58302;51.446;-2.000;2024-02-21T09:55:33;99702.97;;;8.54;100.00
55301;BME280;58302;51.446;-2.000;2024-02-21T09:58:04;99695.13;;;8.53;100.00
55301;BME280;58302;51.446;-2.000;2024-02-21T10:00:30;99679.13;;;8.56;100.00
55301;BME280;58302;51.446;-2.000;2024-02-21T10:02:56;99675.34;;;8.57;100.00
55301;BME280;58302;51.446;-2.000;2024-02-21T10:05:22;99660.16;;;8.56;100.00
55301;BME280;58302;51.446;-2.000;2024-02-21T10:07:51;99663.97;;;8.65;100.00
55301;BME280;58302;51.446;-2.000;2024-02-21T10:10:17;99645.53;;;8.67;100.00
55301;BME280;58302;51.446;-2.000;2024-02-21T10:12:50;99644.47;;;8.68;100.00
55301;BME280;58302;51.446;-2.000;2024-02-21T10:15:24;99626.84;;;8.71;100.00
55301;BME280;58302;51.446;-2.000;2024-02-21T10:17:58;99618.44;;;8.73;100.00
55301;BME280;58302;51.446;-2.000;2024-02-21T10:20:24;99609.78;;;8.70;100.00
55301;BME280;58302;51.446;-2.000;2024-02-21T10:23:04;100096.91;;;8.74;100.00
55301;BME280;58302;51.446;-2.000;2024-02-21T10:25:37;99867.97;;;8.76;100.00
55301;BME280;58302;51.446;-2.000;2024-02-21T10:28:16;99733.31;;;8.82;100.00
55301;BME280;58302;51.446;-2.000;2024-02-21T10:30:51;99656.13;;;8.79;100.00
55301;BME280;58302;51.446;-2.000;2024-02-21T10:33:19;99629.03;;;8.74;100.00
55301;BME280;58302;51.446;-2.000;2024-02-21T10:35:47;99634.16;;;8.76;100.00
55301;BME280;58302;51.446;-2.000;2024-02-21T10:38:16;100256.44;;;8.70;100.00
55301;BME280;58302;51.446;-2.000;2024-02-21T10:40:42;99905.59;;;8.73;100.00
55301;BME280;58302;51.446;-2.000;2024-02-21T10:43:12;99787.78;;;8.75;100.00
55301;BME280;58302;51.446;-2.000;2024-02-21T10:45:41;99733.31;;;8.77;100.00
55301;BME280;58302;51.446;-2.000;2024-02-21T10:48:14;99688.06;;;8.77;100.00
55301;BME280;58302;51.446;-2.000;2024-02-21T10:51:03;99667.75;;;8.80;100.00
55301;BME280;58302;51.446;-2.000;2024-02-21T10:54:02;99642.28;;;8.81;100.00
55301;BME280;58302;51.446;-2.000;2024-02-21T10:56:32;99632.78;;;8.78;100.00
55301;BME280;58302;51.446;-2.000;2024-02-21T10:59:06;99622.75;;;8.84;100.00
55301;BME280;58302;51.446;-2.000;2024-02-21T11:01:34;99604.06;;;8.87;100.00
55301;BME280;58302;51.446;-2.000;2024-02-21T11:04:20;99572.34;;;8.88;100.00
55301;BME280;58302;51.446;-2.000;2024-02-21T11:06:47;99566.66;;;8.89;100.00
55301;BME280;58302;51.446;-2.000;2024-02-21T11:09:15;99560.41;;;8.94;100.00
55301;BME280;58302;51.446;-2.000;2024-02-21T11:11:43;99562.03;;;8.95;100.00
55301;BME280;58302;51.446;-2.000;2024-02-21T11:14:23;99547.66;;;9.00;100.00
55301;BME280;58302;51.446;-2.000;2024-02-21T11:16:52;99522.16;;;9.01;100.00
55301;BME280;58302;51.446;-2.000;2024-02-21T11:19:26;99522.44;;;9.04;100.00
55301;BME280;58302;51.446;-2.000;2024-02-21T11:21:54;99501.84;;;9.08;100.00
55301;BME280;58302;51.446;-2.000;2024-02-21T11:26:54;99492.31;;;9.11;100.00
55301;BME280;58302;51.446;-2.000;2024-02-21T11:29:25;99471.19;;;9.13;100.00
55301;BME280;58302;51.446;-2.000;2024-02-21T11:31:53;99474.69;;;9.13;100.00
55301;BME280;58302;51.446;-2.000;2024-02-21T11:34:20;99463.28;;;9.16;100.00
55301;BME280;58302;51.446;-2.000;2024-02-21T11:36:50;99447.81;;;9.17;100.00
55301;BME280;58302;51.446;-2.000;2024-02-21T11:39:21;99450.78;;;9.20;100.00
55301;BME280;58302;51.446;-2.000;2024-02-21T11:42:00;99445.38;;;9.20;100.00
55301;BME280;58302;51.446;-2.000;2024-02-21T11:44:26;99422.06;;;9.19;100.00
55301;BME280;58302;51.446;-2.000;2024-02-21T11:46:52;99418.22;;;9.26;100.00
55301;BME280;58302;51.446;-2.000;2024-02-21T11:49:18;99415.75;;;9.34;100.00
55301;BME280;58302;51.446;-2.000;2024-02-21T11:51:44;99408.97;;;9.32;100.00
55301;BME280;58302;51.446;-2.000;2024-02-21T11:54:11;99401.91;;;9.36;100.00
55301;BME280;58302;51.446;-2.000;2024-02-21T11:56:37;99381.53;;;9.38;100.00
55301;BME280;58302;51.446;-2.000;2024-02-21T11:59:02;99389.09;;;9.41;100.00
55301;BME280;58302;51.446;-2.000;2024-02-21T12:01:31;99399.09;;;9.46;100.00
55301;BME280;58302;51.446;-2.000;2024-02-21T12:03:57;99363.84;;;9.46;100.00
55301;BME280;58302;51.446;-2.000;2024-02-21T12:06:25;99368.47;;;9.45;100.00
55301;BME280;58302;51.446;-2.000;2024-02-21T12:08:51;99367.13;;;9.43;100.00
55301;BME280;58302;51.446;-2.000;2024-02-21T12:11:22;99361.66;;;9.48;100.00
55301;BME280;58302;51.446;-2.000;2024-02-21T12:14:01;99350.81;;;9.48;100.00
55301;BME280;58302;51.446;-2.000;2024-02-21T12:16:35;99320.97;;;9.48;100.00
55301;BME280;58302;51.446;-2.000;2024-02-21T12:19:03;99330.47;;;9.50;100.00
55301;BME280;58302;51.446;-2.000;2024-02-21T12:21:35;99320.69;;;9.49;100.00
55301;BME280;58302;51.446;-2.000;2024-02-21T12:24:23;99303.34;;;9.50;100.00
55301;BME280;58302;51.446;-2.000;2024-02-21T12:26:51;99296.81;;;9.52;100.00
55301;BME280;58302;51.446;-2.000;2024-02-21T12:29:20;99290.28;;;9.53;100.00
55301;BME280;58302;51.446;-2.000;2024-02-21T12:31:47;99282.41;;;9.56;100.00
55301;BME280;58302;51.446;-2.000;2024-02-21T12:34:14;99264.16;;;9.62;100.00
55301;BME280;58302;51.446;-2.000;2024-02-21T12:36:44;99251.06;;;9.69;100.00
55301;BME280;58302;51.446;-2.000;2024-02-21T12:39:10;99243.16;;;9.72;100.00
55301;BME280;58302;51.446;-2.000;2024-02-21T12:41:37;99228.44;;;9.79;100.00
55301;BME280;58302;51.446;-2.000;2024-02-21T12:44:10;99230.25;;;9.83;100.00
55301;BME280;58302;51.446;-2.000;2024-02-21T12:46:37;99210.94;;;9.90;100.00
55301;BME280;58302;51.446;-2.000;2024-02-21T12:49:04;99200.56;;;9.92;100.00
55301;BME280;58302;51.446;-2.000;2024-02-21T12:51:31;99187.69;;;10.02;100.00
55301;BME280;58302;51.446;-2.000;2024-02-21T12:53:58;99182.25;;;10.02;100.00
55301;BME280;58302;51.446;-2.000;2024-02-21T12:56:25;99177.19;;;9.96;100.00